createdAt,value
2017-03-16T00:00:34.299Z,6.88
2017-03-16T00:01:34.309Z,6.92
2017-03-16T00:02:34.328Z,6.95
2017-03-16T00:03:34.344Z,6.87
2017-03-16T00:04:34.364Z,6.97
2017-03-16T00:05:34.383Z,7.02
2017-03-16T00:06:34.403Z,6.98
2017-03-16T00:08:34.444Z,6.89
2017-03-16T00:09:34.461Z,6.95
2017-03-16T00:10:49.092Z,6.98
2017-03-16T00:11:34.495Z,6.97
2017-03-16T00:12:49.130Z,7.09
2017-03-16T00:13:34.534Z,7.09
2017-03-16T00:14:34.551Z,6.98
2017-03-16T00:15:34.570Z,6.92
2017-03-16T00:16:34.589Z,6.92
2017-03-16T00:17:34.606Z,6.88
2017-03-16T00:18:34.625Z,6.77
2017-03-16T00:19:34.646Z,6.77
2017-03-16T00:22:34.730Z,6.79
2017-03-16T00:24:34.737Z,6.71
2017-03-16T00:25:49.372Z,6.69
2017-03-16T00:26:34.775Z,6.74
2017-03-16T00:27:34.792Z,6.62
2017-03-16T00:28:49.427Z,6.62
2017-03-16T00:29:34.830Z,6.7
2017-03-16T00:30:34.851Z,6.69
2017-03-16T00:31:34.568Z,6.64
2017-03-16T00:32:34.885Z,6.61
2017-03-16T00:33:34.903Z,6.56
2017-03-16T00:34:34.923Z,6.61
2017-03-16T00:35:34.942Z,6.67
2017-03-16T00:36:34.960Z,6.62
2017-03-16T00:37:34.977Z,6.69
2017-03-16T00:38:34.995Z,6.67
2017-03-16T00:39:35.014Z,6.55
2017-03-16T00:40:34.730Z,6.61
2017-03-16T00:41:49.669Z,6.67
2017-03-16T00:42:35.071Z,6.59
2017-03-16T00:43:35.088Z,6.56
2017-03-16T00:44:49.723Z,6.41
2017-03-16T00:45:35.128Z,6.51
2017-03-16T00:46:35.149Z,6.48
2017-03-16T00:47:35.166Z,6.43
2017-03-16T00:48:34.876Z,6.41
2017-03-16T00:49:35.200Z,6.41
2017-03-16T00:50:35.217Z,6.43
2017-03-16T00:51:35.238Z,6.44
2017-03-16T00:52:35.254Z,6.49
2017-03-16T00:54:34.987Z,6.44
2017-03-16T00:56:35.331Z,6.38
2017-03-16T00:57:49.964Z,6.41
2017-03-16T00:58:35.366Z,6.4
2017-03-16T00:59:50.001Z,6.28
2017-03-16T01:00:35.404Z,6.37
2017-03-16T01:01:35.117Z,6.3
2017-03-16T01:02:35.439Z,6.34
2017-03-16T01:03:35.457Z,6.31
2017-03-16T01:04:35.476Z,6.31
2017-03-16T01:05:35.494Z,6.34
2017-03-16T01:06:35.511Z,6.31
2017-03-16T01:07:35.530Z,6.28
2017-03-16T01:08:35.548Z,6.33
2017-03-16T01:10:35.587Z,6.33
2017-03-16T01:11:50.223Z,6.19
2017-03-16T01:12:35.623Z,6.28
2017-03-16T01:13:35.642Z,6.25
2017-03-16T01:14:35.659Z,6.31
2017-03-16T01:15:35.374Z,6.3
2017-03-16T01:16:35.698Z,6.3
2017-03-16T01:17:35.714Z,6.33
2017-03-16T01:18:35.430Z,6.25
2017-03-16T01:19:35.753Z,6.3
2017-03-16T01:20:35.768Z,6.3
2017-03-16T01:21:35.787Z,6.31
2017-03-16T01:22:35.808Z,6.41
2017-03-16T01:23:35.825Z,6.36
2017-03-16T01:24:35.841Z,6.33
2017-03-16T01:25:35.861Z,6.31
2017-03-16T01:26:35.879Z,6.3
2017-03-16T01:27:35.594Z,6.27
2017-03-16T01:28:35.914Z,6.18
2017-03-16T01:29:35.634Z,6.34
2017-03-16T01:30:35.951Z,6.36
2017-03-16T01:31:50.600Z,6.28
2017-03-16T01:32:35.986Z,6.4
2017-03-16T01:33:36.009Z,6.33
2017-03-16T01:34:36.028Z,6.36
2017-03-16T01:35:36.046Z,6.33
2017-03-16T01:36:36.061Z,6.27
2017-03-16T01:38:36.094Z,6.19
2017-03-16T01:39:35.811Z,6.22
2017-03-16T01:40:36.134Z,6.18
2017-03-16T01:42:36.170Z,6.21
2017-03-16T01:43:36.189Z,6.12
2017-03-16T01:44:36.207Z,6.11
2017-03-16T01:45:50.841Z,6.11
2017-03-16T01:46:36.244Z,6.03
2017-03-16T01:47:50.889Z,6.15
2017-03-16T01:48:36.282Z,5.97
2017-03-16T01:49:36.296Z,5.99
2017-03-16T01:50:36.314Z,5.99
2017-03-16T01:51:36.333Z,5.91
2017-03-16T01:52:36.352Z,5.93
2017-03-16T01:53:36.376Z,5.93
2017-03-16T01:54:36.389Z,5.85
2017-03-16T01:55:36.410Z,5.89
2017-03-16T01:56:36.429Z,5.9
2017-03-16T01:58:36.460Z,5.94
2017-03-16T01:59:36.478Z,5.86
2017-03-16T02:00:51.113Z,5.94
2017-03-16T02:01:36.541Z,5.93
2017-03-16T02:02:36.230Z,5.93
2017-03-16T02:03:51.166Z,5.96
2017-03-16T02:04:36.269Z,5.96
2017-03-16T02:05:36.585Z,5.97
2017-03-16T02:06:36.604Z,5.94
2017-03-16T02:07:36.623Z,5.89
2017-03-16T02:09:36.661Z,5.85
2017-03-16T02:10:36.677Z,5.82
2017-03-16T02:11:36.693Z,5.89
2017-03-16T02:14:36.748Z,6.08
2017-03-16T02:15:36.770Z,6.11
2017-03-16T02:16:36.784Z,6.11
2017-03-16T02:17:36.803Z,6.12
2017-03-16T02:18:51.436Z,6.14
2017-03-16T02:19:51.465Z,6.15
2017-03-16T02:20:36.858Z,6.18
2017-03-16T02:21:36.878Z,6.19
2017-03-16T02:22:36.892Z,6.19
2017-03-16T02:23:36.914Z,6.18
2017-03-16T02:24:36.931Z,6.21
2017-03-16T02:25:36.950Z,6.27
2017-03-16T02:26:36.966Z,6.27
2017-03-16T02:27:36.984Z,6.28
2017-03-16T02:29:36.717Z,6.31
2017-03-16T02:30:37.039Z,6.33
2017-03-16T02:31:37.059Z,6.3
2017-03-16T02:32:51.691Z,6.48
2017-03-16T02:33:37.093Z,6.41
2017-03-16T02:34:51.728Z,6.44
2017-03-16T02:35:37.131Z,6.55
2017-03-16T02:36:36.844Z,6.43
2017-03-16T02:37:37.165Z,6.36
2017-03-16T02:38:37.185Z,6.48
2017-03-16T02:39:37.203Z,6.41
2017-03-16T02:40:37.223Z,6.55
2017-03-16T02:41:37.240Z,6.49
2017-03-16T02:42:37.257Z,6.55
2017-03-16T02:43:37.274Z,6.52
2017-03-16T02:44:37.292Z,6.55
2017-03-16T02:45:37.312Z,6.56
2017-03-16T02:46:37.330Z,6.56
2017-03-16T02:47:37.347Z,6.62
2017-03-16T02:48:51.981Z,6.62
2017-03-16T02:49:37.388Z,6.69
2017-03-16T02:50:37.404Z,6.74
2017-03-16T02:51:37.118Z,6.71
2017-03-16T02:52:37.442Z,6.66
2017-03-16T02:53:37.458Z,6.74
2017-03-16T02:54:37.475Z,6.71
2017-03-16T02:55:37.493Z,6.67
2017-03-16T02:56:37.514Z,6.77
2017-03-16T02:57:37.558Z,6.85
2017-03-16T02:58:37.548Z,6.76
2017-03-16T03:00:37.584Z,6.77
2017-03-16T03:01:37.604Z,6.79
2017-03-16T03:02:37.320Z,6.81
2017-03-16T03:03:51.952Z,6.71
2017-03-16T03:04:37.662Z,6.8
2017-03-16T03:05:37.676Z,6.76
2017-03-16T03:06:52.310Z,6.73
2017-03-16T03:07:37.712Z,6.7
2017-03-16T03:08:37.734Z,6.66
2017-03-16T03:09:38.150Z,6.73
2017-03-16T03:10:37.771Z,6.73
2017-03-16T03:11:37.786Z,6.73
2017-03-16T03:12:37.807Z,6.74
2017-03-16T03:13:37.824Z,6.74
2017-03-16T03:14:37.842Z,6.79
2017-03-16T03:15:37.891Z,6.67
2017-03-16T03:16:37.880Z,6.8
2017-03-16T03:17:37.590Z,6.71
2017-03-16T03:18:37.914Z,6.77
2017-03-16T03:19:52.549Z,6.67
2017-03-16T03:20:52.567Z,6.61
2017-03-16T03:21:37.968Z,6.64
2017-03-16T03:22:52.606Z,6.58
2017-03-16T03:23:38.012Z,6.64
2017-03-16T03:24:37.720Z,6.54
2017-03-16T03:25:38.052Z,6.4
2017-03-16T03:26:37.757Z,6.38
2017-03-16T03:27:38.080Z,6.34
2017-03-16T03:28:38.098Z,6.27
2017-03-16T03:29:38.114Z,6.17
2017-03-16T03:30:38.134Z,6.21
2017-03-16T03:31:37.849Z,6.12
2017-03-16T03:32:38.170Z,6.04
2017-03-16T03:33:38.192Z,6.09
2017-03-16T03:34:38.209Z,6.06
2017-03-16T03:35:38.226Z,6.18
2017-03-16T03:36:38.244Z,6.09
2017-03-16T03:37:38.261Z,6.03
2017-03-16T03:38:52.922Z,6.12
2017-03-16T03:39:38.297Z,6.09
2017-03-16T03:40:38.317Z,6.14
2017-03-16T03:41:38.032Z,6.11
2017-03-16T03:42:38.500Z,6.04
2017-03-16T03:43:38.370Z,6.08
2017-03-16T03:45:38.411Z,6.17
2017-03-16T03:47:38.442Z,6.04
2017-03-16T03:50:38.497Z,6.14
2017-03-16T03:51:38.211Z,6.06
2017-03-16T03:52:38.536Z,6.19
2017-03-16T03:53:38.551Z,6.11
2017-03-16T03:54:52.885Z,6.08
2017-03-16T03:55:38.587Z,6.06
2017-03-16T03:56:38.605Z,6.09
2017-03-16T03:57:38.622Z,6.21
2017-03-16T03:58:38.336Z,6.27
2017-03-16T03:59:38.661Z,6.18
2017-03-16T04:00:38.678Z,6.27
2017-03-16T04:01:38.696Z,6.22
2017-03-16T04:02:38.714Z,6.28
2017-03-16T04:03:38.734Z,6.22
2017-03-16T04:04:38.748Z,6.19
2017-03-16T04:05:38.464Z,6.22
2017-03-16T04:06:38.483Z,6.18
2017-03-16T04:07:38.804Z,6.18
2017-03-16T04:08:38.825Z,6.15
2017-03-16T04:09:53.457Z,6.19
2017-03-16T04:10:38.859Z,6.06
2017-03-16T04:11:38.877Z,6.08
2017-03-16T04:12:38.897Z,6.12
2017-03-16T04:13:38.915Z,6.08
2017-03-16T04:14:38.932Z,6.01
2017-03-16T04:15:38.948Z,6.06
2017-03-16T04:16:38.965Z,6
2017-03-16T04:17:38.984Z,6.03
2017-03-16T04:18:39.005Z,6
2017-03-16T04:20:39.040Z,5.94
2017-03-16T04:21:39.057Z,5.82
2017-03-16T04:22:53.691Z,5.81
2017-03-16T04:23:53.708Z,5.76
2017-03-16T04:24:39.111Z,5.76
2017-03-16T04:25:39.129Z,5.74
2017-03-16T04:26:39.148Z,5.75
2017-03-16T04:27:39.163Z,5.65
2017-03-16T04:28:38.878Z,5.68
2017-03-16T04:29:39.201Z,5.76
2017-03-16T04:30:39.220Z,5.65
2017-03-16T04:31:39.236Z,5.81
2017-03-16T04:32:39.254Z,5.65
2017-03-16T04:33:39.272Z,5.68
2017-03-16T04:34:39.291Z,5.68
2017-03-16T04:36:39.327Z,5.71
2017-03-16T04:37:39.342Z,5.68
2017-03-16T04:38:53.978Z,5.68
2017-03-16T04:39:39.379Z,5.72
2017-03-16T04:40:39.398Z,5.67
2017-03-16T04:41:54.033Z,5.65
2017-03-16T04:42:39.435Z,5.6
2017-03-16T04:43:39.455Z,5.68
2017-03-16T04:44:39.472Z,5.65
2017-03-16T04:45:39.489Z,5.65
2017-03-16T04:46:39.506Z,5.78
2017-03-16T04:47:39.524Z,5.75
2017-03-16T04:48:39.540Z,5.74
2017-03-16T04:51:54.236Z,5.71
2017-03-16T04:53:39.326Z,5.74
2017-03-16T04:54:54.265Z,5.63
2017-03-16T04:55:39.667Z,5.74
2017-03-16T04:56:39.685Z,5.63
2017-03-16T04:57:54.318Z,5.53
2017-03-16T04:58:39.723Z,5.58
2017-03-16T04:59:39.737Z,5.49
2017-03-16T05:00:39.756Z,5.53
2017-03-16T05:01:39.775Z,5.57
2017-03-16T05:02:39.788Z,5.64
2017-03-16T05:03:39.813Z,5.53
2017-03-16T05:06:40.220Z,5.65
2017-03-16T05:07:39.884Z,5.6
2017-03-16T05:08:54.517Z,5.61
2017-03-16T05:09:39.917Z,5.54
2017-03-16T05:10:54.550Z,5.53
2017-03-16T05:11:39.649Z,5.63
2017-03-16T05:12:39.972Z,5.65
2017-03-16T05:13:54.607Z,5.54
2017-03-16T05:14:39.700Z,5.56
2017-03-16T05:15:40.023Z,5.57
2017-03-16T05:16:40.042Z,5.54
2017-03-16T05:17:40.061Z,5.48
2017-03-16T05:19:40.097Z,5.57
2017-03-16T05:20:39.809Z,5.56
2017-03-16T05:21:40.129Z,5.43
2017-03-16T05:22:40.152Z,5.49
2017-03-16T05:23:54.785Z,5.48
2017-03-16T05:24:40.185Z,5.49
2017-03-16T05:25:54.514Z,5.46
2017-03-16T05:26:39.915Z,5.49
2017-03-16T05:27:40.238Z,5.49
2017-03-16T05:28:40.257Z,5.56
2017-03-16T05:29:54.891Z,5.46
2017-03-16T05:30:40.289Z,5.57
2017-03-16T05:31:40.307Z,5.53
2017-03-16T05:32:40.326Z,5.49
2017-03-16T05:33:40.346Z,5.49
2017-03-16T05:34:40.766Z,5.53
2017-03-16T05:35:40.379Z,5.57
2017-03-16T05:36:40.399Z,5.57
2017-03-16T05:37:40.420Z,5.54
2017-03-16T05:38:40.433Z,5.67
2017-03-16T05:39:40.449Z,5.65
2017-03-16T05:40:40.467Z,5.72
2017-03-16T05:41:40.485Z,5.74
2017-03-16T05:42:40.506Z,5.74
2017-03-16T05:43:40.525Z,5.68
2017-03-16T05:44:54.852Z,5.72
2017-03-16T05:45:40.558Z,5.72
2017-03-16T05:46:40.577Z,5.85
2017-03-16T05:47:40.598Z,5.85
2017-03-16T05:48:40.621Z,5.86
2017-03-16T05:49:40.630Z,5.85
2017-03-16T05:50:40.652Z,5.9
2017-03-16T05:51:40.667Z,6.03
2017-03-16T05:52:40.687Z,5.97
2017-03-16T05:53:40.704Z,6.04
2017-03-16T05:55:40.738Z,6.17
2017-03-16T05:56:40.756Z,6.22
2017-03-16T05:57:40.778Z,6.03
2017-03-16T05:58:40.493Z,6.11
2017-03-16T05:59:40.811Z,6.15
2017-03-16T06:00:40.527Z,6.15
2017-03-16T06:01:40.546Z,6.22
2017-03-16T06:02:40.563Z,6.19
2017-03-16T06:03:40.585Z,6.22
2017-03-16T06:04:40.902Z,6.25
2017-03-16T06:05:40.922Z,6.3
2017-03-16T06:06:40.940Z,6.33
2017-03-16T06:09:41.000Z,6.59
2017-03-16T06:11:41.037Z,6.8
2017-03-16T06:12:41.062Z,7.1
2017-03-16T06:13:41.083Z,7.12
2017-03-16T06:14:41.098Z,7.27
2017-03-16T06:15:41.120Z,7.45
2017-03-16T06:16:55.757Z,7.71
2017-03-16T06:17:41.168Z,7.58
2017-03-16T06:18:41.187Z,7.82
2017-03-16T06:19:41.209Z,7.92
2017-03-16T06:20:41.232Z,8.04
2017-03-16T06:21:41.249Z,8.12
2017-03-16T06:22:41.281Z,8.19
2017-03-16T06:24:41.321Z,8.33
2017-03-16T06:25:41.345Z,8.45
2017-03-16T06:26:41.369Z,8.36
2017-03-16T06:27:41.406Z,8.43
2017-03-16T06:28:41.420Z,8.45
2017-03-16T06:29:56.058Z,8.47
2017-03-16T06:30:56.081Z,8.41
2017-03-16T06:31:41.186Z,8.37
2017-03-16T06:32:56.134Z,8.43
2017-03-16T06:33:41.539Z,8.44
2017-03-16T06:34:41.561Z,8.45
2017-03-16T06:35:41.794Z,8.23
2017-03-16T06:36:41.610Z,8.23
2017-03-16T06:37:41.633Z,8.23
2017-03-16T06:38:41.656Z,8.23
2017-03-16T06:39:41.685Z,8.25
2017-03-16T06:40:41.701Z,8.25
2017-03-16T06:41:41.418Z,8.02
2017-03-16T06:42:41.749Z,8.01
2017-03-16T06:43:56.387Z,7.93
2017-03-16T06:44:56.408Z,7.92
2017-03-16T06:45:41.814Z,7.87
2017-03-16T06:46:41.837Z,8
2017-03-16T06:47:41.863Z,7.92
2017-03-16T06:48:56.497Z,7.87
2017-03-16T06:50:41.924Z,7.85
2017-03-16T06:51:41.943Z,7.83
2017-03-16T06:52:41.967Z,7.86
2017-03-16T06:53:41.989Z,7.98
2017-03-16T06:54:41.715Z,8.25
2017-03-16T06:55:41.727Z,8.38
2017-03-16T06:56:41.748Z,8.7
2017-03-16T06:57:41.774Z,8.95
2017-03-16T06:58:42.099Z,9.24
2017-03-16T07:00:42.139Z,9.51
2017-03-16T07:01:56.781Z,9.47
2017-03-16T07:02:41.595Z,9.51
2017-03-16T07:03:42.211Z,9.57
2017-03-16T07:04:56.850Z,9.47
2017-03-16T07:05:42.257Z,9.56
2017-03-16T07:06:42.278Z,9.48
2017-03-16T07:07:42.304Z,9.65
2017-03-16T07:08:42.327Z,9.71
2017-03-16T07:09:42.353Z,9.69
2017-03-16T07:10:42.372Z,9.57
2017-03-16T07:11:42.395Z,9.69
2017-03-16T07:12:42.119Z,9.79
2017-03-16T07:13:42.444Z,9.9
2017-03-16T07:14:42.462Z,10.12
2017-03-16T07:16:57.127Z,10.25
2017-03-16T07:17:42.539Z,10.25
2017-03-16T07:18:42.559Z,10.3
2017-03-16T07:19:57.201Z,10.47
2017-03-16T07:20:42.608Z,10.53
2017-03-16T07:21:42.323Z,10.63
2017-03-16T07:23:42.675Z,10.04
2017-03-16T07:24:42.696Z,10.26
2017-03-16T07:25:42.720Z,10.2
2017-03-16T07:26:42.750Z,10.17
2017-03-16T07:27:42.466Z,9.93
2017-03-16T07:28:42.792Z,9.71
2017-03-16T07:29:57.432Z,9.58
2017-03-16T07:30:57.453Z,9.64
2017-03-16T07:31:42.856Z,9.64
2017-03-16T07:32:57.498Z,9.65
2017-03-16T07:33:42.906Z,9.78
2017-03-16T07:34:42.927Z,9.97
2017-03-16T07:35:42.647Z,10.22
2017-03-16T07:36:42.976Z,10.32
2017-03-16T07:37:42.698Z,10.38
2017-03-16T07:38:43.025Z,10.51
2017-03-16T07:39:43.045Z,10.76
2017-03-16T07:40:43.069Z,10.81
2017-03-16T07:41:43.097Z,11.07
2017-03-16T07:43:43.148Z,11.47
2017-03-16T07:44:43.180Z,11.72
2017-03-16T07:46:43.220Z,11.79
2017-03-16T07:47:43.243Z,11.79
2017-03-16T07:48:43.271Z,11.73
2017-03-16T07:49:43.294Z,11.67
2017-03-16T07:50:43.319Z,11.75
2017-03-16T07:51:57.962Z,11.79
2017-03-16T07:52:43.370Z,11.78
2017-03-16T07:53:43.396Z,11.75
2017-03-16T07:54:43.420Z,11.49
2017-03-16T07:55:43.442Z,11.51
2017-03-16T07:56:43.467Z,11.33
2017-03-16T07:57:43.493Z,11.51
2017-03-16T07:58:43.521Z,11.37
2017-03-16T07:59:43.543Z,11.29
2017-03-16T08:00:43.570Z,11.32
2017-03-16T08:01:43.588Z,11.39
2017-03-16T08:02:43.617Z,11.52
2017-03-16T08:03:43.640Z,11.69
2017-03-16T08:04:43.664Z,11.52
2017-03-16T08:05:43.690Z,11.57
2017-03-16T08:06:43.713Z,11.73
2017-03-16T08:07:58.359Z,11.58
2017-03-16T08:08:43.766Z,11.35
2017-03-16T08:09:43.786Z,11.06
2017-03-16T08:10:43.811Z,11.09
2017-03-16T08:11:43.836Z,11.03
2017-03-16T08:12:43.857Z,10.91
2017-03-16T08:14:43.908Z,10.91
2017-03-16T08:15:43.938Z,10.86
2017-03-16T08:16:43.955Z,11.09
2017-03-16T08:17:43.983Z,11.28
2017-03-16T08:18:44.007Z,11.35
2017-03-16T08:19:58.646Z,11.35
2017-03-16T08:20:58.668Z,11.43
2017-03-16T08:21:43.771Z,11.58
2017-03-16T08:22:44.101Z,11.55
2017-03-16T08:23:58.739Z,11.51
2017-03-16T08:24:44.144Z,11.57
2017-03-16T08:25:44.172Z,11.79
2017-03-16T08:26:44.193Z,11.65
2017-03-16T08:27:44.215Z,11.75
2017-03-16T08:28:44.242Z,11.95
2017-03-16T08:29:44.263Z,12.05
2017-03-16T08:30:44.289Z,12.17
2017-03-16T08:31:44.311Z,12.05
2017-03-16T08:34:44.381Z,11.91
2017-03-16T08:35:44.407Z,11.7
2017-03-16T08:36:59.046Z,11.73
2017-03-16T08:37:44.453Z,11.8
2017-03-16T08:38:44.474Z,12.04
2017-03-16T08:39:59.115Z,12.14
2017-03-16T08:40:44.522Z,12.13
2017-03-16T08:41:44.548Z,12.13
2017-03-16T08:42:44.569Z,12.17
2017-03-16T08:43:44.591Z,12.14
2017-03-16T08:44:44.619Z,12.02
2017-03-16T08:45:44.339Z,12.17
2017-03-16T08:46:44.666Z,12.16
2017-03-16T08:47:44.689Z,12.21
2017-03-16T08:51:44.786Z,12.17
2017-03-16T08:52:59.426Z,12.02
2017-03-16T08:53:44.835Z,12.2
2017-03-16T08:54:59.472Z,12.34
2017-03-16T08:55:44.881Z,12.12
2017-03-16T08:56:44.904Z,12.1
2017-03-16T08:57:44.925Z,12.38
2017-03-16T08:58:44.950Z,12.46
2017-03-16T08:59:44.980Z,12.46
2017-03-16T09:00:44.999Z,12.39
2017-03-16T09:01:45.024Z,12.34
2017-03-16T09:02:45.049Z,12.46
2017-03-16T09:03:45.069Z,12.6
2017-03-16T09:05:59.739Z,12.78
2017-03-16T09:06:45.145Z,12.89
2017-03-16T09:07:45.166Z,12.96
2017-03-16T09:08:44.888Z,12.93
2017-03-16T09:09:45.217Z,12.79
2017-03-16T09:10:45.243Z,12.59
2017-03-16T09:11:45.266Z,12.42
2017-03-16T09:12:45.288Z,12.2
2017-03-16T09:13:45.314Z,11.76
2017-03-16T09:14:45.338Z,11.94
2017-03-16T09:15:45.361Z,11.95
2017-03-16T09:16:45.387Z,11.95
2017-03-16T09:17:45.410Z,12.05
2017-03-16T09:19:45.457Z,12.13
2017-03-16T09:21:45.201Z,12.46
2017-03-16T09:22:45.530Z,12.68
2017-03-16T09:24:00.170Z,13.07
2017-03-16T09:25:00.195Z,13.38
2017-03-16T09:25:45.602Z,13.44
2017-03-16T09:27:00.243Z,13.48
2017-03-16T09:27:45.649Z,13.41
2017-03-16T09:28:45.673Z,13.29
2017-03-16T09:29:45.699Z,13.33
2017-03-16T09:30:45.724Z,13.54
2017-03-16T09:31:45.749Z,13.57
2017-03-16T09:32:45.779Z,13.59
2017-03-16T09:33:45.798Z,13.88
2017-03-16T09:34:45.823Z,13.73
2017-03-16T09:35:45.850Z,13.57
2017-03-16T09:36:45.873Z,13.49
2017-03-16T09:37:45.896Z,13.51
2017-03-16T09:38:46.221Z,13.6
2017-03-16T09:40:00.565Z,13.59
2017-03-16T09:40:45.976Z,13.6
2017-03-16T09:41:45.999Z,13.49
2017-03-16T09:43:00.639Z,13.54
2017-03-16T09:43:46.047Z,13.49
2017-03-16T09:44:46.072Z,13.63
2017-03-16T09:45:46.098Z,13.82
2017-03-16T09:46:46.172Z,13.51
2017-03-16T09:47:46.149Z,13.38
2017-03-16T09:48:46.173Z,12.97
2017-03-16T09:49:46.199Z,13.19
2017-03-16T09:50:46.225Z,13.22
2017-03-16T09:51:45.945Z,13.55
2017-03-16T09:53:46.299Z,13.69
2017-03-16T09:54:46.323Z,13.79
2017-03-16T09:56:00.968Z,13.78
2017-03-16T09:56:46.374Z,13.79
2017-03-16T09:57:46.399Z,13.63
2017-03-16T09:59:01.045Z,13.69
2017-03-16T09:59:46.450Z,13.91
2017-03-16T10:00:46.477Z,14.21
2017-03-16T10:01:46.504Z,14.12
2017-03-16T10:02:46.525Z,14.1
2017-03-16T10:04:46.578Z,14.2
2017-03-16T10:05:46.602Z,13.95
2017-03-16T10:06:46.626Z,13.84
2017-03-16T10:07:46.649Z,13.95
2017-03-16T10:08:46.680Z,13.75
2017-03-16T10:10:46.725Z,13.33
2017-03-16T10:12:01.369Z,13.28
2017-03-16T10:13:01.397Z,13.41
2017-03-16T10:14:01.418Z,13.36
2017-03-16T10:15:01.444Z,13.55
2017-03-16T10:15:46.851Z,13.44
2017-03-16T10:16:46.876Z,13.36
2017-03-16T10:17:46.903Z,13.52
2017-03-16T10:18:46.923Z,13.6
2017-03-16T10:19:46.952Z,13.51
2017-03-16T10:20:46.977Z,13.33
2017-03-16T10:21:47.001Z,13.51
2017-03-16T10:22:47.023Z,13.6
2017-03-16T10:23:47.048Z,13.52
2017-03-16T10:24:47.078Z,13.63
2017-03-16T10:25:47.101Z,13.79
2017-03-16T10:26:47.124Z,13.89
2017-03-16T10:27:47.148Z,13.89
2017-03-16T10:28:47.173Z,14.06
2017-03-16T10:30:01.819Z,14.18
2017-03-16T10:30:47.224Z,14.33
2017-03-16T10:31:47.250Z,14.2
2017-03-16T10:32:47.307Z,14.37
2017-03-16T10:33:47.299Z,14.4
2017-03-16T10:34:47.326Z,14.47
2017-03-16T10:35:47.360Z,13.97
2017-03-16T10:36:47.371Z,13.91
2017-03-16T10:37:47.399Z,14.21
2017-03-16T10:38:47.425Z,14.28
2017-03-16T10:39:47.453Z,14.07
2017-03-16T10:41:02.093Z,13.69
2017-03-16T10:41:47.497Z,13.7
2017-03-16T10:42:47.520Z,13.78
2017-03-16T10:43:47.549Z,13.75
2017-03-16T10:44:47.268Z,13.89
2017-03-16T10:45:47.293Z,13.97
2017-03-16T10:46:47.317Z,14.12
2017-03-16T10:47:47.342Z,14.37
2017-03-16T10:48:47.667Z,14.35
2017-03-16T10:49:47.691Z,14.43
2017-03-16T10:50:47.717Z,14.36
2017-03-16T10:51:47.742Z,14.42
2017-03-16T10:52:47.766Z,14.62
2017-03-16T10:53:47.790Z,14.32
2017-03-16T10:54:47.816Z,14.09
2017-03-16T10:55:47.841Z,14.14
2017-03-16T10:56:47.865Z,14.17
2017-03-16T10:58:47.616Z,14.14
2017-03-16T10:59:47.936Z,14.43
2017-03-16T11:00:47.962Z,14.6
2017-03-16T11:02:02.603Z,14.7
2017-03-16T11:02:48.007Z,14.62
2017-03-16T11:03:48.033Z,14.65
2017-03-16T11:04:48.058Z,14.52
2017-03-16T11:05:48.085Z,14.58
2017-03-16T11:06:48.107Z,14.4
2017-03-16T11:07:48.128Z,14.47
2017-03-16T11:08:48.160Z,14.69
2017-03-16T11:09:48.185Z,14.62
2017-03-16T11:11:47.924Z,14.89
2017-03-16T11:12:48.249Z,14.94
2017-03-16T11:14:02.589Z,14.62
2017-03-16T11:15:02.917Z,14.51
2017-03-16T11:16:02.942Z,14.62
2017-03-16T11:16:48.345Z,14.81
2017-03-16T11:18:02.989Z,15.17
2017-03-16T11:18:48.397Z,15.25
2017-03-16T11:19:48.424Z,15.34
2017-03-16T11:20:48.446Z,15.38
2017-03-16T11:21:48.167Z,15.28
2017-03-16T11:22:48.491Z,15.14
2017-03-16T11:23:47.908Z,15.16
2017-03-16T11:24:48.239Z,15.29
2017-03-16T11:25:48.264Z,15.29
2017-03-16T11:26:48.589Z,15.38
2017-03-16T11:27:48.308Z,15.09
2017-03-16T11:28:48.335Z,15.14
2017-03-16T11:29:48.361Z,15.29
2017-03-16T11:31:03.304Z,15.43
2017-03-16T11:31:48.406Z,15.54
2017-03-16T11:32:48.431Z,15.29
2017-03-16T11:34:03.379Z,15.46
2017-03-16T11:34:48.479Z,15.35
2017-03-16T11:35:48.809Z,15.44
2017-03-16T11:36:48.834Z,15.39
2017-03-16T11:37:48.551Z,15.38
2017-03-16T11:38:48.882Z,15.31
2017-03-16T11:39:48.906Z,15.46
2017-03-16T11:40:48.930Z,15.59
2017-03-16T11:41:48.650Z,15.09
2017-03-16T11:42:48.978Z,14.95
2017-03-16T11:43:48.397Z,14.68
2017-03-16T11:44:49.024Z,14.65
2017-03-16T11:45:49.052Z,14.62
2017-03-16T11:47:03.692Z,14.72
2017-03-16T11:47:49.098Z,14.91
2017-03-16T11:48:48.820Z,14.89
2017-03-16T11:50:03.769Z,14.86
2017-03-16T11:50:49.172Z,15.17
2017-03-16T11:51:49.196Z,14.96
2017-03-16T11:52:49.218Z,15.01
2017-03-16T11:53:49.242Z,15.09
2017-03-16T11:54:49.268Z,15.14
2017-03-16T11:55:49.292Z,14.8
2017-03-16T11:56:49.013Z,14.78
2017-03-16T11:57:49.339Z,14.6
2017-03-16T11:58:49.364Z,14.65
2017-03-16T11:59:49.738Z,14.81
2017-03-16T12:00:49.412Z,15.02
2017-03-16T12:02:04.055Z,14.98
2017-03-16T12:03:04.078Z,14.95
2017-03-16T12:03:49.485Z,15.06
2017-03-16T12:05:04.127Z,15.01
2017-03-16T12:05:49.538Z,14.91
2017-03-16T12:06:49.560Z,14.75
2017-03-16T12:07:49.581Z,14.65
2017-03-16T12:08:49.302Z,14.75
2017-03-16T12:10:04.271Z,14.88
2017-03-16T12:10:49.654Z,14.94
2017-03-16T12:11:49.678Z,14.58
2017-03-16T12:12:49.703Z,14.55
2017-03-16T12:13:49.724Z,14.7
2017-03-16T12:14:49.750Z,14.91
2017-03-16T12:16:04.394Z,15.06
2017-03-16T12:16:49.798Z,15.11
2017-03-16T12:18:04.136Z,15.17
2017-03-16T12:19:04.462Z,15.2
2017-03-16T12:19:49.871Z,15.25
2017-03-16T12:20:49.893Z,15.25
2017-03-16T12:21:49.916Z,15.27
2017-03-16T12:22:49.943Z,15.29
2017-03-16T12:23:49.667Z,15.21
2017-03-16T12:24:49.684Z,15.31
2017-03-16T12:25:50.015Z,15.28
2017-03-16T12:27:50.060Z,15.23
2017-03-16T12:28:50.083Z,14.96
2017-03-16T12:29:50.108Z,14.64
2017-03-16T12:30:50.132Z,14.77
2017-03-16T12:32:04.777Z,15.02
2017-03-16T12:32:50.189Z,14.8
2017-03-16T12:35:04.846Z,14.69
2017-03-16T12:35:50.403Z,14.88
2017-03-16T12:37:04.896Z,15.09
2017-03-16T12:37:50.300Z,15.03
2017-03-16T12:38:50.325Z,15.01
2017-03-16T12:39:50.351Z,15.09
2017-03-16T12:40:50.375Z,15.27
2017-03-16T12:41:50.398Z,15.17
2017-03-16T12:42:50.420Z,15.23
2017-03-16T12:43:50.446Z,15.02
2017-03-16T12:44:50.469Z,14.91
2017-03-16T12:45:50.496Z,14.91
2017-03-16T12:46:50.518Z,15.02
2017-03-16T12:48:50.564Z,14.88
2017-03-16T12:49:50.589Z,14.98
2017-03-16T12:50:50.611Z,15.1
2017-03-16T12:51:50.636Z,15.2
2017-03-16T12:53:05.279Z,15.13
2017-03-16T12:53:50.685Z,15.1
2017-03-16T12:54:50.708Z,15.27
2017-03-16T12:55:50.733Z,15.23
2017-03-16T12:56:50.756Z,15.25
2017-03-16T12:57:50.783Z,15.2
2017-03-16T12:58:50.804Z,15.17
2017-03-16T12:59:50.827Z,14.98
2017-03-16T13:00:50.851Z,14.73
2017-03-16T13:02:50.595Z,14.65
2017-03-16T13:03:50.924Z,14.72
2017-03-16T13:05:05.566Z,15.09
2017-03-16T13:06:05.595Z,15.07
2017-03-16T13:06:51.003Z,15.07
2017-03-16T13:07:51.032Z,15.11
2017-03-16T13:09:05.357Z,15.25
2017-03-16T13:09:51.083Z,15.34
2017-03-16T13:10:51.102Z,15.32
2017-03-16T13:11:51.129Z,15.28
2017-03-16T13:12:51.147Z,15.11
2017-03-16T13:13:51.168Z,15.23
2017-03-16T13:14:51.196Z,15.27
2017-03-16T13:15:51.212Z,15.51
2017-03-16T13:16:51.234Z,15.72
2017-03-16T13:17:51.257Z,15.89
2017-03-16T13:18:51.279Z,15.89
2017-03-16T13:20:51.329Z,16
2017-03-16T13:21:51.361Z,16.11
2017-03-16T13:22:51.082Z,16.23
2017-03-16T13:23:51.400Z,16.33
2017-03-16T13:25:06.048Z,16.21
2017-03-16T13:25:51.451Z,16.24
2017-03-16T13:26:51.477Z,16.24
2017-03-16T13:27:51.496Z,16.02
2017-03-16T13:28:51.521Z,15.84
2017-03-16T13:30:51.573Z,15.74
2017-03-16T13:31:51.307Z,15.65
2017-03-16T13:32:51.618Z,15.84
2017-03-16T13:33:51.339Z,15.93
2017-03-16T13:34:51.671Z,15.93
2017-03-16T13:35:51.692Z,16.14
2017-03-16T13:37:51.739Z,16.15
2017-03-16T13:38:51.763Z,16.3
2017-03-16T13:40:06.407Z,16.23
2017-03-16T13:40:51.814Z,16.23
2017-03-16T13:41:51.837Z,16.28
2017-03-16T13:42:51.861Z,16.31
2017-03-16T13:43:51.886Z,16.27
2017-03-16T13:44:51.605Z,16.17
2017-03-16T13:45:51.935Z,16.11
2017-03-16T13:46:51.961Z,16.09
2017-03-16T13:47:51.982Z,16.04
2017-03-16T13:48:51.703Z,16.02
2017-03-16T13:50:52.056Z,15.82
2017-03-16T13:52:06.698Z,15.78
2017-03-16T13:52:52.103Z,15.82
2017-03-16T13:53:52.129Z,15.92
2017-03-16T13:54:52.153Z,15.89
2017-03-16T13:55:52.177Z,15.86
2017-03-16T13:56:52.202Z,15.97
2017-03-16T13:57:52.253Z,16.04
2017-03-16T13:58:51.945Z,16.09
2017-03-16T13:59:52.272Z,16.11
2017-03-16T14:00:52.296Z,16
2017-03-16T14:01:52.322Z,16.12
2017-03-16T14:02:52.346Z,16.05
2017-03-16T14:04:52.395Z,16.2
2017-03-16T14:06:52.444Z,15.86
2017-03-16T14:08:07.086Z,16.08
2017-03-16T14:09:07.110Z,16.15
2017-03-16T14:09:52.516Z,16.33
2017-03-16T14:10:52.542Z,16.21